This is the latest recevied weather packets stored in our database for station/object N7JP. If no packets are shown the sender has not sent any weather packets the latest 10 day(s).
| Time | Temp. | Humidity | Pressure | Rain* | Wind** | Luminosity | Snow |
|---|---|---|---|---|---|---|---|
| 1777626670 | 11.67° C | 82% | 1011.4 hPa | 0 mm | - | - | - |
| 1777625770 | 11.67° C | 81% | 1011.4 hPa | 0 mm | - | - | - |
| 1777624870 | 11.11° C | 87% | 1011.4 hPa | 0 mm | - | - | - |
| 1777623968 | 10.56° C | 87% | 1011.4 hPa | 0 mm | - | - | - |
| 1777623049 | 10.56° C | 87% | 1011.5 hPa | 0 mm | - | - | - |
| 1777622149 | 11.11° C | 87% | 1011.5 hPa | 0 mm | - | - | - |
| 1777621232 | 10.56° C | 87% | 1011.2 hPa | 0 mm | - | - | - |
| 1777620329 | 10.56° C | 87% | 1011.5 hPa | 0 mm | - | - | - |
| 1777619429 | 11.11° C | 85% | 1011.3 hPa | 0 mm | - | - | - |
| 1777618526 | 11.67° C | 84% | 1011.2 hPa | 0 mm | - | - | - |
| 1777617604 | 11.67° C | 83% | 1011.2 hPa | 0 mm | - | - | - |
| 1777616704 | 11.67° C | 83% | 1011 hPa | 0 mm | - | - | - |
| 1777615774 | 11.67° C | 83% | 1011 hPa | 0 mm | - | - | - |
| 1777614872 | 11.67° C | 83% | 1011.1 hPa | 0 mm | - | - | - |
| 1777613972 | 11.67° C | 83% | 1011.2 hPa | 0 mm | - | - | - |
| 1777612165 | 12.22° C | 82% | 1011.4 hPa | 0 mm | - | - | - |
| 1777611267 | 12.22° C | 83% | 1011.4 hPa | 0 mm | - | - | - |
| 1777610343 | 12.78° C | 80% | 1011.5 hPa | 0 mm | - | - | - |
| 1777609444 | 12.78° C | 79% | 1011.3 hPa | 0 mm | - | - | - |
| 1777608541 | 13.33° C | 80% | 1011.2 hPa | 0 mm | - | - | - |
| 1777607640 | 13.33° C | 79% | 1011 hPa | 0 mm | - | - | - |
| 1777606741 | 13.89° C | 79% | 1010.9 hPa | 0 mm | - | - | - |
| 1777605841 | 14.44° C | 77% | 1010.8 hPa | 0 mm | - | - | - |
| 1777604938 | 15° C | 77% | 1010.8 hPa | 0 mm | - | - | - |
| 1777604037 | 15.56° C | 75% | 1010.7 hPa | 0 mm | - | - | - |
* Rain latest hour (hover to see other rain measurements)
** Current wind speed in m/s (hover to see current wind gust speed)